createdAt,value
2023-02-23T00:00:57.024Z,4.38
2023-02-23T00:03:42.899Z,4.38
2023-02-23T00:06:29.419Z,4.35
2023-02-23T00:09:22.974Z,4.38
2023-02-23T00:12:09.367Z,4.38
2023-02-23T00:14:56.475Z,4.34
2023-02-23T00:17:42.609Z,4.32
2023-02-23T00:20:28.712Z,4.31
2023-02-23T00:23:15.612Z,4.29
2023-02-23T00:26:05.028Z,4.28
2023-02-23T00:28:51.845Z,4.25
2023-02-23T00:31:39.098Z,4.24
2023-02-23T00:34:25.399Z,4.24
2023-02-23T00:37:12.194Z,4.25
2023-02-23T00:39:58.045Z,4.25
2023-02-23T00:42:47.023Z,4.25
2023-02-23T00:45:33.824Z,4.25
2023-02-23T00:48:21.244Z,4.24
2023-02-23T00:51:07.035Z,4.23
2023-02-23T00:53:54.506Z,4.22
2023-02-23T00:56:40.742Z,4.25
2023-02-23T00:59:26.466Z,4.25
2023-02-23T01:02:12.235Z,4.29
2023-02-23T01:04:59.138Z,4.33
2023-02-23T01:07:46.991Z,4.33
2023-02-23T01:10:33.008Z,4.39
2023-02-23T01:13:18.740Z,4.43
2023-02-23T01:16:05.290Z,4.57
2023-02-23T01:18:51.436Z,4.63
2023-02-23T01:21:39.418Z,4.77
2023-02-23T01:24:25.505Z,4.92
2023-02-23T01:27:13.598Z,5.06
2023-02-23T01:29:59.813Z,5.16
2023-02-23T01:32:45.646Z,5.22
2023-02-23T01:35:31.726Z,5.24
2023-02-23T01:38:18.719Z,5.32
2023-02-23T01:41:07.133Z,5.38
2023-02-23T01:43:56.692Z,5.39
2023-02-23T01:46:45.205Z,5.46
2023-02-23T01:49:31.760Z,5.46
2023-02-23T01:52:18.384Z,5.47
2023-02-23T01:55:06.192Z,5.47
2023-02-23T01:57:53.961Z,5.49
2023-02-23T02:00:40.164Z,5.47
2023-02-23T02:03:27.585Z,5.52
2023-02-23T02:06:14.653Z,5.50
2023-02-23T02:09:06.104Z,5.49
2023-02-23T02:11:54.919Z,5.55
2023-02-23T02:14:41.982Z,5.58
2023-02-23T02:17:30.439Z,5.64
2023-02-23T02:20:38.274Z,5.67
2023-02-23T02:23:31.276Z,5.69
2023-02-23T02:26:20.788Z,5.77
2023-02-23T02:29:17.190Z,5.79
2023-02-23T02:32:30.474Z,5.84
2023-02-23T02:35:31.694Z,5.87
2023-02-23T02:38:24.234Z,5.86
2023-02-23T02:41:12.542Z,5.92
2023-02-23T02:44:01.818Z,5.94
2023-02-23T02:46:48.829Z,5.95
2023-02-23T02:49:37.161Z,6.00
2023-02-23T02:52:25.105Z,6.01
2023-02-23T02:55:13.275Z,6.03
2023-02-23T02:57:59.260Z,6.06
2023-02-23T03:01:03.490Z,6.11
2023-02-23T03:04:07.491Z,6.13
2023-02-23T03:07:11.888Z,6.19
2023-02-23T03:10:17.386Z,6.23
2023-02-23T03:13:25.532Z,6.25
2023-02-23T03:16:32.544Z,6.29
2023-02-23T03:19:37.112Z,6.32
2023-02-23T03:22:41.307Z,6.34
2023-02-23T03:25:46.372Z,6.36
2023-02-23T03:28:52.474Z,6.44
2023-02-23T03:31:57.045Z,6.48
2023-02-23T03:35:02.206Z,6.49
2023-02-23T03:38:07.154Z,6.50
2023-02-23T03:41:11.085Z,6.51
2023-02-23T03:44:17.698Z,6.50
2023-02-23T03:47:22.224Z,6.54
2023-02-23T03:50:27.353Z,6.56
2023-02-23T03:53:31.258Z,6.56
2023-02-23T03:56:35.574Z,6.57
2023-02-23T03:59:40.502Z,6.60
2023-02-23T04:02:44.449Z,6.60
2023-02-23T04:05:48.501Z,6.61
2023-02-23T04:08:52.908Z,6.63
2023-02-23T04:11:59.259Z,6.66
2023-02-23T04:14:47.433Z,6.66
2023-02-23T04:17:33.602Z,6.68
2023-02-23T04:20:19.278Z,6.72
2023-02-23T04:23:05.170Z,6.75
2023-02-23T04:25:51.211Z,6.74
2023-02-23T04:28:38.025Z,6.77
2023-02-23T04:31:25.967Z,6.79
2023-02-23T04:34:12.451Z,6.79
2023-02-23T04:36:58.269Z,6.80
2023-02-23T04:39:48.544Z,6.78
2023-02-23T04:42:34.709Z,6.82
2023-02-23T04:45:20.679Z,6.83
2023-02-23T04:48:07.832Z,6.84
2023-02-23T04:50:54.008Z,6.84
2023-02-23T04:53:40.575Z,6.88
2023-02-23T04:56:26.436Z,6.91
2023-02-23T04:59:13.211Z,6.92
2023-02-23T05:01:59.062Z,6.92
2023-02-23T05:04:46.115Z,6.96
2023-02-23T05:07:31.984Z,6.97
2023-02-23T05:10:17.841Z,6.97
2023-02-23T05:13:03.628Z,7.00
2023-02-23T05:15:49.668Z,7.01
2023-02-23T05:18:35.874Z,7.01
2023-02-23T05:21:23.550Z,7.04
2023-02-23T05:24:09.805Z,7.03
2023-02-23T05:26:55.844Z,7.04
2023-02-23T05:29:41.877Z,7.07
2023-02-23T05:32:27.955Z,7.09
2023-02-23T05:35:13.975Z,7.12
2023-02-23T05:38:01.349Z,7.13
2023-02-23T05:40:47.186Z,7.13
2023-02-23T05:43:32.912Z,7.14
2023-02-23T05:46:19.195Z,7.17
2023-02-23T05:49:05.229Z,7.16
2023-02-23T05:51:51.471Z,7.19
2023-02-23T05:54:38.909Z,7.20
2023-02-23T05:57:25.236Z,7.21
2023-02-23T06:00:11.955Z,7.22
2023-02-23T06:02:58.166Z,7.23
2023-02-23T06:05:44.401Z,7.23
2023-02-23T06:08:30.200Z,7.23
2023-02-23T06:11:17.888Z,7.22
2023-02-23T06:14:04.231Z,7.25
2023-02-23T06:16:50.863Z,7.26
2023-02-23T06:19:36.860Z,7.23
2023-02-23T06:22:22.979Z,7.23
2023-02-23T06:25:12.721Z,7.23
2023-02-23T06:28:00.057Z,7.24
2023-02-23T06:30:46.666Z,7.25
2023-02-23T06:33:32.972Z,7.22
2023-02-23T06:36:18.810Z,7.26
2023-02-23T06:39:04.770Z,7.25
2023-02-23T06:41:50.855Z,7.27
2023-02-23T06:44:40.056Z,7.26
2023-02-23T06:47:26.085Z,7.27
2023-02-23T06:50:12.427Z,7.28
2023-02-23T06:52:58.854Z,7.32
2023-02-23T06:55:44.650Z,7.31
2023-02-23T06:58:30.661Z,7.32
2023-02-23T07:01:18.852Z,7.34
2023-02-23T07:04:05.429Z,7.36
2023-02-23T07:06:51.518Z,7.37
2023-02-23T07:09:37.443Z,7.38
2023-02-23T07:12:23.172Z,7.39
2023-02-23T07:15:10.031Z,7.38
2023-02-23T07:17:57.455Z,7.39
2023-02-23T07:20:44.799Z,7.41
2023-02-23T07:23:30.795Z,7.43
2023-02-23T07:26:16.975Z,7.45
2023-02-23T07:29:03.210Z,7.47
2023-02-23T07:31:49.768Z,7.45
2023-02-23T07:34:37.816Z,7.48
2023-02-23T07:37:23.776Z,7.49
2023-02-23T07:40:10.048Z,7.50
2023-02-23T07:42:56.272Z,7.51
2023-02-23T07:45:44.949Z,7.53
2023-02-23T07:48:33.145Z,7.54
2023-02-23T07:51:21.081Z,7.57
2023-02-23T07:54:07.399Z,7.58
2023-02-23T07:56:53.255Z,7.61
2023-02-23T07:59:39.582Z,7.63
2023-02-23T08:02:25.414Z,7.66
2023-02-23T08:05:11.288Z,7.67
2023-02-23T08:07:58.634Z,7.69
2023-02-23T08:10:44.557Z,7.70
2023-02-23T08:13:31.749Z,7.73
2023-02-23T08:16:18.412Z,7.75
2023-02-23T08:19:04.429Z,7.77
2023-02-23T08:21:50.410Z,7.80
2023-02-23T08:24:37.594Z,7.84
2023-02-23T08:27:23.340Z,7.88
2023-02-23T08:30:09.826Z,7.91
2023-02-23T08:32:56.076Z,7.93
2023-02-23T08:35:41.874Z,7.97
2023-02-23T08:38:27.868Z,8.01
2023-02-23T08:41:15.157Z,8.03
2023-02-23T08:44:00.951Z,8.08
2023-02-23T08:46:46.877Z,8.11
2023-02-23T08:49:33.305Z,8.12
2023-02-23T08:52:19.148Z,8.13
2023-02-23T08:55:05.294Z,8.17
2023-02-23T08:57:52.398Z,8.22
2023-02-23T09:00:38.457Z,8.22
2023-02-23T09:03:25.810Z,8.19
2023-02-23T09:06:13.091Z,8.23
2023-02-23T09:08:59.072Z,8.25
2023-02-23T09:11:44.912Z,8.28
2023-02-23T09:14:32.250Z,8.27
2023-02-23T09:17:18.573Z,8.26
2023-02-23T09:20:04.970Z,8.32
2023-02-23T09:22:51.053Z,8.33
2023-02-23T09:25:43.099Z,8.33
2023-02-23T09:28:31.141Z,8.32
2023-02-23T09:31:19.801Z,8.32
2023-02-23T09:34:06.010Z,8.35
2023-02-23T09:36:52.303Z,8.35
2023-02-23T09:39:39.185Z,8.37
2023-02-23T09:42:26.922Z,8.33
2023-02-23T09:45:25.833Z,8.36
2023-02-23T09:48:17.237Z,8.40
2023-02-23T09:51:03.364Z,8.41
2023-02-23T09:53:51.061Z,8.41
2023-02-23T09:56:38.033Z,8.35
2023-02-23T09:59:24.996Z,8.43
2023-02-23T10:02:14.859Z,8.42
2023-02-23T10:05:02.730Z,8.46
2023-02-23T10:07:49.452Z,8.42
2023-02-23T10:10:38.616Z,8.46
2023-02-23T10:13:27.465Z,8.46
2023-02-23T10:16:14.964Z,8.47
2023-02-23T10:19:03.942Z,8.47
2023-02-23T10:21:52.708Z,8.46
2023-02-23T10:24:40.115Z,8.47
2023-02-23T10:27:29.256Z,8.47
2023-02-23T10:30:17.694Z,8.46
2023-02-23T10:33:05.807Z,8.46
2023-02-23T10:35:54.037Z,8.48
2023-02-23T10:38:47.906Z,8.48
2023-02-23T10:41:33.859Z,8.48
2023-02-23T10:44:20.608Z,8.51
2023-02-23T10:47:07.233Z,8.50
2023-02-23T10:49:53.372Z,8.54
2023-02-23T10:52:42.124Z,8.57
2023-02-23T10:55:30.404Z,8.58
2023-02-23T10:58:20.280Z,8.60
2023-02-23T11:01:06.494Z,8.63
2023-02-23T11:04:05.522Z,8.65
2023-02-23T11:06:53.088Z,8.68
2023-02-23T11:09:47.072Z,8.72
2023-02-23T11:12:41.751Z,8.71
2023-02-23T11:15:49.892Z,8.76
2023-02-23T11:18:36.434Z,8.78
2023-02-23T11:21:23.434Z,8.84
2023-02-23T11:24:22.396Z,8.87
2023-02-23T11:27:11.081Z,8.92
2023-02-23T11:29:57.282Z,8.93
2023-02-23T11:32:44.659Z,8.98
2023-02-23T11:35:31.433Z,9.00
2023-02-23T11:38:17.961Z,9.01
2023-02-23T11:41:04.804Z,9.08
2023-02-23T11:43:51.874Z,9.12
2023-02-23T11:46:39.652Z,9.14
2023-02-23T11:49:27.734Z,9.17
2023-02-23T11:52:14.181Z,9.15
2023-02-23T11:55:01.366Z,9.14
2023-02-23T11:57:49.386Z,9.16
2023-02-23T12:00:35.175Z,9.15
2023-02-23T12:03:22.434Z,9.11
2023-02-23T12:06:09.784Z,9.14
2023-02-23T12:08:59.332Z,9.13
2023-02-23T12:11:47.764Z,9.16
2023-02-23T12:14:37.465Z,9.11
2023-02-23T12:17:24.879Z,9.17
2023-02-23T12:20:11.985Z,9.22
2023-02-23T12:23:00.462Z,9.25
2023-02-23T12:25:47.204Z,9.29
2023-02-23T12:28:34.869Z,9.33
2023-02-23T12:31:23.406Z,9.34
2023-02-23T12:34:11.187Z,9.42
2023-02-23T12:36:58.124Z,9.42
2023-02-23T12:39:45.699Z,9.45
2023-02-23T12:42:33.680Z,9.50
2023-02-23T12:45:21.981Z,9.44
2023-02-23T12:48:11.614Z,9.50
2023-02-23T12:50:57.958Z,9.48
2023-02-23T12:53:44.324Z,9.47
2023-02-23T12:56:35.449Z,9.49
2023-02-23T12:59:25.778Z,9.51
2023-02-23T13:02:16.292Z,9.52
2023-02-23T13:05:24.319Z,9.46
2023-02-23T13:08:13.809Z,9.50
2023-02-23T13:11:02.884Z,9.46
2023-02-23T13:13:51.685Z,9.45
2023-02-23T13:16:38.370Z,9.50
2023-02-23T13:19:24.689Z,9.50
2023-02-23T13:22:15.040Z,9.48
2023-02-23T13:25:04.552Z,9.49
2023-02-23T13:27:52.201Z,9.51
2023-02-23T13:30:45.936Z,9.50
2023-02-23T13:33:43.746Z,9.49
2023-02-23T13:36:30.843Z,9.50
2023-02-23T13:39:21.994Z,9.55
2023-02-23T13:42:13.364Z,9.56
2023-02-23T13:45:01.462Z,9.61
2023-02-23T13:47:49.252Z,9.63
2023-02-23T13:50:37.622Z,9.63
2023-02-23T13:53:29.325Z,9.65
2023-02-23T13:56:16.505Z,9.67
2023-02-23T13:59:02.850Z,9.64
2023-02-23T14:01:50.016Z,9.57
2023-02-23T14:04:38.002Z,9.58
2023-02-23T14:07:24.973Z,9.55
2023-02-23T14:10:16.550Z,9.51
2023-02-23T14:13:06.779Z,9.50
2023-02-23T14:16:07.562Z,9.46
2023-02-23T14:18:57.998Z,9.47
2023-02-23T14:21:46.832Z,9.43
2023-02-23T14:24:32.558Z,9.35
2023-02-23T14:27:39.986Z,9.28
2023-02-23T14:30:27.462Z,9.22
2023-02-23T14:33:28.638Z,9.27
2023-02-23T14:36:29.664Z,9.16
2023-02-23T14:39:18.129Z,9.19
2023-02-23T14:42:05.443Z,9.13
2023-02-23T14:44:52.442Z,9.13
2023-02-23T14:47:42.371Z,9.09
2023-02-23T14:50:29.333Z,9.09
2023-02-23T14:53:18.470Z,9.09
2023-02-23T14:56:06.224Z,9.08
2023-02-23T14:58:52.862Z,9.00
2023-02-23T15:01:39.268Z,8.98
2023-02-23T15:04:27.049Z,8.97
2023-02-23T15:07:16.846Z,8.85
2023-02-23T15:10:03.282Z,8.83
2023-02-23T15:12:51.004Z,8.78
2023-02-23T15:15:39.202Z,8.69
2023-02-23T15:19:01.828Z,8.69
2023-02-23T15:22:06.959Z,8.67
2023-02-23T15:24:52.894Z,8.66
2023-02-23T15:27:42.111Z,8.60
2023-02-23T15:30:31.336Z,8.57
2023-02-23T15:33:23.513Z,8.51
2023-02-23T15:36:11.413Z,8.45
2023-02-23T15:38:58.829Z,8.41
2023-02-23T15:41:45.329Z,8.38
2023-02-23T15:44:43.585Z,8.39
2023-02-23T15:47:34.361Z,8.37
2023-02-23T15:50:35.886Z,8.33
2023-02-23T15:53:25.354Z,8.29
2023-02-23T15:56:12.507Z,8.24
2023-02-23T15:58:59.218Z,8.20
2023-02-23T16:01:46.243Z,8.15
2023-02-23T16:04:36.683Z,8.06
2023-02-23T16:07:23.658Z,8.10
2023-02-23T16:10:19.609Z,8.07
2023-02-23T16:13:05.768Z,8.07
2023-02-23T16:15:52.523Z,8.00
2023-02-23T16:18:39.537Z,8.03
2023-02-23T16:21:26.966Z,8.02
2023-02-23T16:24:13.314Z,7.97
2023-02-23T16:26:59.920Z,7.94
2023-02-23T16:29:46.390Z,7.92
2023-02-23T16:32:37.549Z,7.86
2023-02-23T16:35:23.638Z,7.85
2023-02-23T16:38:15.055Z,7.82
2023-02-23T16:41:01.195Z,7.82
2023-02-23T16:43:47.619Z,7.82
2023-02-23T16:46:37.600Z,7.79
2023-02-23T16:49:24.150Z,7.76
2023-02-23T16:52:15.331Z,7.76
2023-02-23T16:55:04.613Z,7.75
2023-02-23T16:57:51.593Z,7.72
2023-02-23T17:00:37.397Z,7.68
2023-02-23T17:03:24.252Z,7.66
2023-02-23T17:06:12.301Z,7.55
2023-02-23T17:08:58.774Z,7.49
2023-02-23T17:11:47.048Z,7.50
2023-02-23T17:14:33.034Z,7.46
2023-02-23T17:17:19.646Z,7.43
2023-02-23T17:20:12.414Z,7.42
2023-02-23T17:22:58.786Z,7.40
2023-02-23T17:25:44.847Z,7.40
2023-02-23T17:28:32.098Z,7.37
2023-02-23T17:31:18.315Z,7.38
2023-02-23T17:34:04.409Z,7.32
2023-02-23T17:36:50.113Z,7.34
2023-02-23T17:39:37.345Z,7.26
2023-02-23T17:42:24.363Z,7.27
2023-02-23T17:45:11.751Z,7.21
2023-02-23T17:47:57.589Z,7.20
2023-02-23T17:50:43.793Z,7.19
2023-02-23T17:53:29.761Z,7.17
2023-02-23T17:56:17.624Z,7.17
2023-02-23T17:59:04.552Z,7.13
2023-02-23T18:01:51.994Z,7.13
2023-02-23T18:04:37.797Z,7.11
2023-02-23T18:07:23.559Z,7.12
2023-02-23T18:10:09.948Z,7.05
2023-02-23T18:12:56.241Z,7.02
2023-02-23T18:15:42.235Z,6.99
2023-02-23T18:18:29.714Z,6.99
2023-02-23T18:21:16.372Z,6.97
2023-02-23T18:24:02.305Z,6.98
2023-02-23T18:26:47.987Z,6.97
2023-02-23T18:29:34.847Z,6.95
2023-02-23T18:32:20.918Z,6.89
2023-02-23T18:35:08.558Z,6.90
2023-02-23T18:37:54.596Z,6.92
2023-02-23T18:40:40.854Z,6.87
2023-02-23T18:43:26.558Z,6.88
2023-02-23T18:46:13.023Z,6.85
2023-02-23T18:48:58.709Z,6.85
2023-02-23T18:51:45.751Z,6.85
2023-02-23T18:54:31.723Z,6.89
2023-02-23T18:57:17.531Z,6.88
2023-02-23T19:00:07.206Z,6.83
2023-02-23T19:02:53.695Z,6.82
2023-02-23T19:05:45.772Z,6.79
2023-02-23T19:08:32.931Z,6.69
2023-02-23T19:11:19.057Z,6.71
2023-02-23T19:14:06.457Z,6.63
2023-02-23T19:16:52.564Z,6.42
2023-02-23T19:19:38.355Z,6.55
2023-02-23T19:22:24.309Z,6.54
2023-02-23T19:25:15.175Z,6.44
2023-02-23T19:28:01.042Z,6.38
2023-02-23T19:30:48.972Z,6.38
2023-02-23T19:33:35.565Z,6.37
2023-02-23T19:36:22.636Z,6.25
2023-02-23T19:39:12.722Z,6.22
2023-02-23T19:42:00.115Z,6.26
2023-02-23T19:44:45.951Z,6.19
2023-02-23T19:47:31.762Z,6.19
2023-02-23T19:50:18.796Z,6.01
2023-02-23T19:53:05.074Z,6.12
2023-02-23T19:55:58.844Z,6.07
2023-02-23T19:58:46.783Z,6.02
2023-02-23T20:01:32.822Z,6.02
2023-02-23T20:04:18.868Z,5.89
2023-02-23T20:07:04.584Z,5.81
2023-02-23T20:09:50.785Z,5.76
2023-02-23T20:12:36.967Z,5.67
2023-02-23T20:15:24.104Z,5.71
2023-02-23T20:18:10.214Z,5.61
2023-02-23T20:20:55.835Z,5.59
2023-02-23T20:23:41.677Z,5.56
2023-02-23T20:26:29.025Z,5.52
2023-02-23T20:29:18.047Z,5.46
2023-02-23T20:32:06.711Z,5.50
2023-02-23T20:34:52.622Z,5.49
2023-02-23T20:37:38.699Z,5.39
2023-02-23T20:40:24.749Z,5.41
2023-02-23T20:43:10.500Z,5.45
2023-02-23T20:45:57.282Z,5.40
2023-02-23T20:48:44.525Z,5.41
2023-02-23T20:51:30.772Z,5.38
2023-02-23T20:54:16.973Z,5.30
2023-02-23T20:57:07.630Z,5.28
2023-02-23T20:59:53.500Z,5.25
2023-02-23T21:02:40.766Z,5.22
2023-02-23T21:05:28.423Z,5.18
2023-02-23T21:08:15.854Z,5.08
2023-02-23T21:11:05.009Z,5.09
2023-02-23T21:13:51.144Z,5.08
2023-02-23T21:16:41.568Z,5.06
2023-02-23T21:19:30.861Z,5.10
2023-02-23T21:22:20.467Z,5.09
2023-02-23T21:25:10.429Z,5.04
2023-02-23T21:28:06.799Z,5.00
2023-02-23T21:31:01.532Z,4.93
2023-02-23T21:33:47.527Z,4.98
2023-02-23T21:36:42.386Z,4.99
2023-02-23T21:39:31.807Z,5.00
2023-02-23T21:42:24.148Z,4.96
2023-02-23T21:45:13.269Z,5.00
2023-02-23T21:48:04.968Z,4.93
2023-02-23T21:50:51.399Z,4.97
2023-02-23T21:53:38.284Z,4.90
2023-02-23T21:56:25.620Z,4.90
2023-02-23T21:59:11.598Z,4.90
2023-02-23T22:01:57.475Z,4.92
2023-02-23T22:04:46.005Z,4.92
2023-02-23T22:07:32.307Z,4.87
2023-02-23T22:10:18.498Z,4.83
2023-02-23T22:13:05.602Z,4.87
2023-02-23T22:15:51.510Z,4.88
2023-02-23T22:18:37.275Z,4.90
2023-02-23T22:21:23.500Z,4.89
2023-02-23T22:24:10.208Z,4.85
2023-02-23T22:26:55.934Z,4.88
2023-02-23T22:29:43.129Z,4.89
2023-02-23T22:32:32.446Z,4.86
2023-02-23T22:35:18.872Z,4.77
2023-02-23T22:38:04.702Z,4.80
2023-02-23T22:40:50.402Z,4.78
2023-02-23T22:43:36.335Z,4.78
2023-02-23T22:46:23.838Z,4.75
2023-02-23T22:49:10.540Z,4.64
2023-02-23T22:51:56.195Z,4.69
2023-02-23T22:54:43.666Z,4.71
2023-02-23T22:57:29.398Z,4.66
2023-02-23T23:00:16.402Z,4.67
2023-02-23T23:03:05.135Z,4.63
2023-02-23T23:05:51.416Z,4.62
2023-02-23T23:08:38.554Z,4.59
2023-02-23T23:11:25.883Z,4.57
2023-02-23T23:14:11.976Z,4.59
2023-02-23T23:16:58.139Z,4.55
2023-02-23T23:19:46.030Z,4.50
2023-02-23T23:22:35.344Z,4.52
2023-02-23T23:25:23.482Z,4.49
2023-02-23T23:28:12.326Z,4.47
2023-02-23T23:30:58.351Z,4.46
2023-02-23T23:33:47.922Z,4.49
2023-02-23T23:36:37.148Z,4.43
2023-02-23T23:39:23.564Z,4.41
2023-02-23T23:42:09.197Z,4.42
2023-02-23T23:44:56.854Z,4.38
2023-02-23T23:47:42.940Z,4.38
2023-02-23T23:50:28.858Z,4.31
2023-02-23T23:53:15.927Z,4.33
2023-02-23T23:56:06.295Z,4.32
2023-02-23T23:58:53.687Z,4.31
